Portada
METAR-TAF:

METAR-TAF

Aeroports :

Oak Ridge, Tennessee, Estats Units d'Amèrica

latitud: 36-01-22N, longitud: 084-14W, altitud: 279 m

Observació

L'informe es va fer fa 7 minuts, a les 01:53 UTC
Vent 5 kt amb direcció variable
Temperatura 17°C
Humitat 77%
Pressió 1020 hPa
Visibilitat: 16.1 km
Cel cobert a una alçada de 1500 ft

METAR: KOQT 180153Z AUTO VRB05KT 10SM OVC015 17/13 A3011 RMK AO2 SLP188 T01720133

Hora: 22:00 (02:00 UTC)


TAF: manca

Observacions i pronòstics meteorològics de més de 4000 aeroports (METAR i TAF).

Les estacions disponibles són els punts grocs i vermells al mapa.

Posi el ratolí al punt desitjat per veure el nom de l'estació.

Feu clic per veure les observacions i els pronòstics meteorològics.

Per canviar el mapa: feu clic els botons verds amb una creu de color negre per apropar; al botó verd amb un guió per allunyar la imatge; o en les fletxes verdes per a mapes adjacents.


METAR-TAF: